Aérodrome :
LOGIN :

S'inscrire | Disclaimer

   EN    FR    IT 

 










Légende :    VFR   VFR Marginal   IFR   IFR Intensif   IFR Très Intensif
Visi : 
Plafond : 
>= 8 km
>= 3000ft
5 à 8 km
1000 à 3000 ft
1500m à 5 km
500 à 1000 ft
800 à 1500m
200 à 500 ft
< 800m
< 200 ft
Symboles :   Orages  Brouillard  Fortes neiges  Fortes précipitations  Vent > 20 kt
SIGMETs :   Divers  Orages  Givrage  Turbulence  Onde Orograph.  Cendres Volcan.







- Altitude de l'aérodrome : 408 ft
- Code IATA : FKB


EDSB - Karlsruhe Baden Baden

DERNIER METAR :
  • 191820Z VRB03KT CAVOK 18/09 Q1021

METARs EXPIRÉS :
  • 191750Z 27004KT 220V310 CAVOK 20/09 Q1020
  • 191720Z 28006KT 250V320 CAVOK 20/08 Q1020
  • 191650Z 28006KT 230V320 CAVOK 21/08 Q1020
  • 191620Z 29007KT 260V320 CAVOK 21/08 Q1020
  • 191550Z 29007KT 250V330 CAVOK 22/08 Q1020
  • 191520Z 29007KT 250V320 CAVOK 22/09 Q1020

TAF TAF EDSB
Valide du 19 à 18h jusqu'au 20 à 18h UTC


191700Z 1918/2018 28007KT CAVOK
BECMG 1918/1921 22004KT
BECMG 2008/2012 29006KT
Pas de NOTAMs connus pour ce terrain.



MET'MAP, la Météo Aéronautique d'un coup d'oeil ! - Copyright ORBIFLY Décembre 2007 - Disclaimer

ORBIFLY MET'MAP TEAM :

Programmation & Développement : Alexandra Zaïnal
Conception & Développement : Baudouin d'Aumeries
Co-Programmation & Développement : Marc-Olivier Méhu
Soutien technique & logistique : Manuel Goepfert

Contact : metmap@orbifly.com




SOURCES & CREDITS :

   NOAA